sensor_id;sensor_type;location;lat;lon;timestamp;temperature;humidity
41924;DHT22;27613;48.116;11.656;2022-08-25T00:01:49;17.70;99.90
41924;DHT22;27613;48.116;11.656;2022-08-25T00:04:16;17.70;99.90
41924;DHT22;27613;48.116;11.656;2022-08-25T00:06:43;17.70;99.90
41924;DHT22;27613;48.116;11.656;2022-08-25T00:09:10;17.70;99.90
41924;DHT22;27613;48.116;11.656;2022-08-25T00:11:37;17.60;99.90
41924;DHT22;27613;48.116;11.656;2022-08-25T00:14:07;17.60;99.90
41924;DHT22;27613;48.116;11.656;2022-08-25T00:16:33;17.60;99.90
41924;DHT22;27613;48.116;11.656;2022-08-25T00:19:02;17.50;99.90
41924;DHT22;27613;48.116;11.656;2022-08-25T00:21:28;17.40;99.90
41924;DHT22;27613;48.116;11.656;2022-08-25T00:23:56;17.40;99.90
41924;DHT22;27613;48.116;11.656;2022-08-25T00:26:22;17.30;99.90
41924;DHT22;27613;48.116;11.656;2022-08-25T00:28:48;17.20;99.90
41924;DHT22;27613;48.116;11.656;2022-08-25T00:31:17;17.20;99.90
41924;DHT22;27613;48.116;11.656;2022-08-25T00:33:44;17.20;99.90
41924;DHT22;27613;48.116;11.656;2022-08-25T00:36:10;17.20;99.90
41924;DHT22;27613;48.116;11.656;2022-08-25T00:38:38;17.20;99.90
41924;DHT22;27613;48.116;11.656;2022-08-25T00:41:04;17.10;99.90
41924;DHT22;27613;48.116;11.656;2022-08-25T00:46:15;17.10;99.90
41924;DHT22;27613;48.116;11.656;2022-08-25T00:48:45;17.10;99.90
41924;DHT22;27613;48.116;11.656;2022-08-25T00:51:14;17.10;99.90
41924;DHT22;27613;48.116;11.656;2022-08-25T00:53:41;17.00;99.90
41924;DHT22;27613;48.116;11.656;2022-08-25T00:56:08;17.00;99.90
41924;DHT22;27613;48.116;11.656;2022-08-25T00:58:34;17.00;99.90
41924;DHT22;27613;48.116;11.656;2022-08-25T01:01:00;16.90;99.90
41924;DHT22;27613;48.116;11.656;2022-08-25T01:03:27;16.80;99.90
41924;DHT22;27613;48.116;11.656;2022-08-25T01:05:54;16.80;99.90
41924;DHT22;27613;48.116;11.656;2022-08-25T01:08:25;16.80;99.90
41924;DHT22;27613;48.116;11.656;2022-08-25T01:10:52;16.70;99.90
41924;DHT22;27613;48.116;11.656;2022-08-25T01:13:23;16.70;99.90
41924;DHT22;27613;48.116;11.656;2022-08-25T01:15:54;16.70;99.90
41924;DHT22;27613;48.116;11.656;2022-08-25T01:18:21;16.70;99.90
41924;DHT22;27613;48.116;11.656;2022-08-25T01:20:49;16.70;99.90
41924;DHT22;27613;48.116;11.656;2022-08-25T01:23:16;16.60;99.90
41924;DHT22;27613;48.116;11.656;2022-08-25T01:25:55;16.60;99.90
41924;DHT22;27613;48.116;11.656;2022-08-25T01:28:23;16.60;99.90
41924;DHT22;27613;48.116;11.656;2022-08-25T01:30:49;16.50;99.90
41924;DHT22;27613;48.116;11.656;2022-08-25T01:33:15;16.50;99.90
41924;DHT22;27613;48.116;11.656;2022-08-25T01:35:44;16.50;99.90
41924;DHT22;27613;48.116;11.656;2022-08-25T01:38:10;16.50;99.90
41924;DHT22;27613;48.116;11.656;2022-08-25T01:40:37;16.40;99.90
41924;DHT22;27613;48.116;11.656;2022-08-25T01:45:41;16.30;99.90
41924;DHT22;27613;48.116;11.656;2022-08-25T01:48:08;16.30;99.90
41924;DHT22;27613;48.116;11.656;2022-08-25T01:50:33;16.20;99.90
41924;DHT22;27613;48.116;11.656;2022-08-25T01:53:25;16.20;99.90
41924;DHT22;27613;48.116;11.656;2022-08-25T01:55:51;16.10;99.90
41924;DHT22;27613;48.116;11.656;2022-08-25T01:58:22;16.10;99.90
41924;DHT22;27613;48.116;11.656;2022-08-25T02:01:14;16.00;99.90
41924;DHT22;27613;48.116;11.656;2022-08-25T02:07:46;15.90;99.90
41924;DHT22;27613;48.116;11.656;2022-08-25T02:17:45;15.80;99.90
41924;DHT22;27613;48.116;11.656;2022-08-25T02:21:09;15.80;99.90
41924;DHT22;27613;48.116;11.656;2022-08-25T02:24:43;15.70;99.90
41924;DHT22;27613;48.116;11.656;2022-08-25T02:37:49;15.50;99.90
41924;DHT22;27613;48.116;11.656;2022-08-25T02:40:40;15.50;99.90
41924;DHT22;27613;48.116;11.656;2022-08-25T02:43:30;15.50;99.90
41924;DHT22;27613;48.116;11.656;2022-08-25T02:46:13;15.40;99.90
41924;DHT22;27613;48.116;11.656;2022-08-25T02:48:46;15.40;99.90
41924;DHT22;27613;48.116;11.656;2022-08-25T02:51:15;15.30;99.90
41924;DHT22;27613;48.116;11.656;2022-08-25T02:53:44;15.20;99.90
41924;DHT22;27613;48.116;11.656;2022-08-25T02:56:12;15.20;99.90
41924;DHT22;27613;48.116;11.656;2022-08-25T02:58:50;15.10;99.90
41924;DHT22;27613;48.116;11.656;2022-08-25T03:01:53;15.20;99.90
41924;DHT22;27613;48.116;11.656;2022-08-25T03:04:37;15.20;99.90
41924;DHT22;27613;48.116;11.656;2022-08-25T03:07:11;15.20;99.90
41924;DHT22;27613;48.116;11.656;2022-08-25T03:10:37;15.20;99.90
41924;DHT22;27613;48.116;11.656;2022-08-25T03:13:41;15.10;99.90
41924;DHT22;27613;48.116;11.656;2022-08-25T03:16:18;15.00;99.90
41924;DHT22;27613;48.116;11.656;2022-08-25T03:18:45;15.00;99.90
41924;DHT22;27613;48.116;11.656;2022-08-25T03:24:33;15.00;99.90
41924;DHT22;27613;48.116;11.656;2022-08-25T03:34:51;14.80;99.90
41924;DHT22;27613;48.116;11.656;2022-08-25T03:38:06;14.90;99.90
41924;DHT22;27613;48.116;11.656;2022-08-25T03:41:16;14.80;99.90
41924;DHT22;27613;48.116;11.656;2022-08-25T03:44:18;14.80;99.90
41924;DHT22;27613;48.116;11.656;2022-08-25T04:01:11;14.70;99.90
41924;DHT22;27613;48.116;11.656;2022-08-25T04:04:46;14.70;99.90
41924;DHT22;27613;48.116;11.656;2022-08-25T04:32:34;14.30;99.90
41924;DHT22;27613;48.116;11.656;2022-08-25T04:35:18;14.20;99.90
41924;DHT22;27613;48.116;11.656;2022-08-25T04:41:18;14.40;99.90
41924;DHT22;27613;48.116;11.656;2022-08-25T04:51:06;14.50;99.90
41924;DHT22;27613;48.116;11.656;2022-08-25T04:54:20;14.60;99.90
41924;DHT22;27613;48.116;11.656;2022-08-25T04:57:04;14.70;99.90
41924;DHT22;27613;48.116;11.656;2022-08-25T04:59:34;14.70;99.90
41924;DHT22;27613;48.116;11.656;2022-08-25T05:02:03;14.70;99.90
41924;DHT22;27613;48.116;11.656;2022-08-25T05:04:33;14.60;99.90
41924;DHT22;27613;48.116;11.656;2022-08-25T05:10:25;14.80;99.90
41924;DHT22;27613;48.116;11.656;2022-08-25T05:26:14;15.20;99.90
41924;DHT22;27613;48.116;11.656;2022-08-25T05:28:40;15.20;99.90
41924;DHT22;27613;48.116;11.656;2022-08-25T05:31:09;15.30;99.90
41924;DHT22;27613;48.116;11.656;2022-08-25T05:33:36;15.30;99.90
41924;DHT22;27613;48.116;11.656;2022-08-25T05:36:03;15.30;99.90
41924;DHT22;27613;48.116;11.656;2022-08-25T05:38:29;15.30;99.90
41924;DHT22;27613;48.116;11.656;2022-08-25T05:41:03;15.30;99.90
41924;DHT22;27613;48.116;11.656;2022-08-25T05:43:30;15.40;99.90
41924;DHT22;27613;48.116;11.656;2022-08-25T05:45:56;15.40;99.90
41924;DHT22;27613;48.116;11.656;2022-08-25T05:48:22;15.40;99.90
41924;DHT22;27613;48.116;11.656;2022-08-25T05:51:08;15.50;99.90
41924;DHT22;27613;48.116;11.656;2022-08-25T05:53:35;15.60;99.90
41924;DHT22;27613;48.116;11.656;2022-08-25T05:56:01;15.70;99.90
41924;DHT22;27613;48.116;11.656;2022-08-25T05:58:29;15.80;99.90
41924;DHT22;27613;48.116;11.656;2022-08-25T06:00:56;15.90;99.90
41924;DHT22;27613;48.116;11.656;2022-08-25T06:03:22;16.00;99.90
41924;DHT22;27613;48.116;11.656;2022-08-25T06:05:48;16.00;99.90
41924;DHT22;27613;48.116;11.656;2022-08-25T06:08:14;16.10;99.90
41924;DHT22;27613;48.116;11.656;2022-08-25T06:10:40;16.10;99.90
41924;DHT22;27613;48.116;11.656;2022-08-25T06:13:06;16.20;99.90
41924;DHT22;27613;48.116;11.656;2022-08-25T06:15:32;16.30;99.90
41924;DHT22;27613;48.116;11.656;2022-08-25T06:17:58;16.50;99.90
41924;DHT22;27613;48.116;11.656;2022-08-25T06:20:28;16.50;99.90
41924;DHT22;27613;48.116;11.656;2022-08-25T06:22:55;16.60;99.90
41924;DHT22;27613;48.116;11.656;2022-08-25T06:25:24;16.70;99.90
41924;DHT22;27613;48.116;11.656;2022-08-25T06:27:50;16.70;99.90
41924;DHT22;27613;48.116;11.656;2022-08-25T06:30:18;16.90;99.90
41924;DHT22;27613;48.116;11.656;2022-08-25T06:32:45;16.90;99.90
41924;DHT22;27613;48.116;11.656;2022-08-25T06:35:14;17.10;99.90
41924;DHT22;27613;48.116;11.656;2022-08-25T06:37:41;17.10;99.90
41924;DHT22;27613;48.116;11.656;2022-08-25T06:40:08;17.10;99.90
41924;DHT22;27613;48.116;11.656;2022-08-25T06:42:34;17.20;99.90
41924;DHT22;27613;48.116;11.656;2022-08-25T06:45:00;17.10;99.90
41924;DHT22;27613;48.116;11.656;2022-08-25T06:47:26;17.20;99.90
41924;DHT22;27613;48.116;11.656;2022-08-25T06:49:52;17.30;99.90
41924;DHT22;27613;48.116;11.656;2022-08-25T06:52:18;17.20;99.90
41924;DHT22;27613;48.116;11.656;2022-08-25T06:54:43;17.30;99.90
41924;DHT22;27613;48.116;11.656;2022-08-25T06:57:09;17.50;99.90
41924;DHT22;27613;48.116;11.656;2022-08-25T06:59:35;17.60;99.90
41924;DHT22;27613;48.116;11.656;2022-08-25T07:02:02;17.70;99.90
41924;DHT22;27613;48.116;11.656;2022-08-25T07:04:28;17.80;99.90
41924;DHT22;27613;48.116;11.656;2022-08-25T07:06:54;17.90;99.90
41924;DHT22;27613;48.116;11.656;2022-08-25T07:09:19;18.20;99.90
41924;DHT22;27613;48.116;11.656;2022-08-25T07:11:45;18.20;99.90
41924;DHT22;27613;48.116;11.656;2022-08-25T07:14:13;18.30;99.90
41924;DHT22;27613;48.116;11.656;2022-08-25T07:16:39;18.40;99.90
41924;DHT22;27613;48.116;11.656;2022-08-25T07:19:06;18.50;99.90
41924;DHT22;27613;48.116;11.656;2022-08-25T07:21:34;18.60;99.90
41924;DHT22;27613;48.116;11.656;2022-08-25T07:24:01;18.70;99.90
41924;DHT22;27613;48.116;11.656;2022-08-25T07:26:31;18.90;99.90
41924;DHT22;27613;48.116;11.656;2022-08-25T07:28:59;19.00;99.90
41924;DHT22;27613;48.116;11.656;2022-08-25T07:31:25;19.60;99.90
41924;DHT22;27613;48.116;11.656;2022-08-25T07:33:50;19.40;99.90
41924;DHT22;27613;48.116;11.656;2022-08-25T07:36:34;19.50;99.90
41924;DHT22;27613;48.116;11.656;2022-08-25T07:39:00;19.60;99.90
41924;DHT22;27613;48.116;11.656;2022-08-25T07:41:31;19.60;99.90
41924;DHT22;27613;48.116;11.656;2022-08-25T07:43:58;19.80;99.90
41924;DHT22;27613;48.116;11.656;2022-08-25T07:46:23;19.90;99.90
41924;DHT22;27613;48.116;11.656;2022-08-25T07:48:49;19.90;99.90
41924;DHT22;27613;48.116;11.656;2022-08-25T07:51:14;20.00;99.90
41924;DHT22;27613;48.116;11.656;2022-08-25T07:53:41;20.00;99.90
41924;DHT22;27613;48.116;11.656;2022-08-25T07:56:12;20.00;99.90
41924;DHT22;27613;48.116;11.656;2022-08-25T07:58:39;20.20;99.90
41924;DHT22;27613;48.116;11.656;2022-08-25T08:01:06;20.40;99.90
41924;DHT22;27613;48.116;11.656;2022-08-25T08:03:32;20.50;99.90
41924;DHT22;27613;48.116;11.656;2022-08-25T08:05:59;20.60;99.90
41924;DHT22;27613;48.116;11.656;2022-08-25T08:08:25;20.60;99.90
41924;DHT22;27613;48.116;11.656;2022-08-25T08:10:51;20.80;99.90
41924;DHT22;27613;48.116;11.656;2022-08-25T08:13:17;20.90;99.90
41924;DHT22;27613;48.116;11.656;2022-08-25T08:15:42;21.20;99.30
41924;DHT22;27613;48.116;11.656;2022-08-25T08:18:09;21.30;98.20
41924;DHT22;27613;48.116;11.656;2022-08-25T08:20:35;21.40;98.30
41924;DHT22;27613;48.116;11.656;2022-08-25T08:23:01;21.50;97.60
41924;DHT22;27613;48.116;11.656;2022-08-25T08:25:26;21.70;96.10
41924;DHT22;27613;48.116;11.656;2022-08-25T08:27:52;21.90;95.70
41924;DHT22;27613;48.116;11.656;2022-08-25T08:30:18;22.10;94.80
41924;DHT22;27613;48.116;11.656;2022-08-25T08:32:46;22.20;94.20
41924;DHT22;27613;48.116;11.656;2022-08-25T08:35:14;22.50;93.00
41924;DHT22;27613;48.116;11.656;2022-08-25T08:37:45;22.60;92.40
41924;DHT22;27613;48.116;11.656;2022-08-25T08:40:25;22.90;91.90
41924;DHT22;27613;48.116;11.656;2022-08-25T08:43:02;23.30;91.10
41924;DHT22;27613;48.116;11.656;2022-08-25T08:45:51;23.60;90.40
41924;DHT22;27613;48.116;11.656;2022-08-25T08:51:22;25.60;82.30
41924;DHT22;27613;48.116;11.656;2022-08-25T08:53:58;26.40;77.70
41924;DHT22;27613;48.116;11.656;2022-08-25T08:56:31;27.30;74.40
41924;DHT22;27613;48.116;11.656;2022-08-25T08:59:02;28.00;72.60
41924;DHT22;27613;48.116;11.656;2022-08-25T09:01:33;28.70;70.00
41924;DHT22;27613;48.116;11.656;2022-08-25T09:04:14;28.90;67.10
41924;DHT22;27613;48.116;11.656;2022-08-25T09:06:45;29.10;66.80
41924;DHT22;27613;48.116;11.656;2022-08-25T09:09:27;29.80;66.00
41924;DHT22;27613;48.116;11.656;2022-08-25T09:14:52;30.90;62.30
41924;DHT22;27613;48.116;11.656;2022-08-25T09:20:35;31.50;59.90
41924;DHT22;27613;48.116;11.656;2022-08-25T09:23:19;31.80;59.00
41924;DHT22;27613;48.116;11.656;2022-08-25T09:26:09;31.50;59.40
41924;DHT22;27613;48.116;11.656;2022-08-25T09:28:47;32.80;57.90
41924;DHT22;27613;48.116;11.656;2022-08-25T09:31:24;32.40;57.90
41924;DHT22;27613;48.116;11.656;2022-08-25T09:36:19;32.40;57.80
41924;DHT22;27613;48.116;11.656;2022-08-25T09:38:48;32.30;57.70
41924;DHT22;27613;48.116;11.656;2022-08-25T09:42:07;33.10;56.80
41924;DHT22;27613;48.116;11.656;2022-08-25T09:44:31;32.80;56.70
41924;DHT22;27613;48.116;11.656;2022-08-25T09:47:03;33.30;55.60
41924;DHT22;27613;48.116;11.656;2022-08-25T09:50:16;33.40;55.90
41924;DHT22;27613;48.116;11.656;2022-08-25T09:54:57;33.30;55.10
41924;DHT22;27613;48.116;11.656;2022-08-25T10:00:14;35.20;52.90
41924;DHT22;27613;48.116;11.656;2022-08-25T10:02:42;35.00;52.90
41924;DHT22;27613;48.116;11.656;2022-08-25T10:05:21;34.40;54.30
41924;DHT22;27613;48.116;11.656;2022-08-25T10:07:54;34.70;53.60
41924;DHT22;27613;48.116;11.656;2022-08-25T10:10:51;34.70;53.30
41924;DHT22;27613;48.116;11.656;2022-08-25T10:13:19;34.70;53.50
41924;DHT22;27613;48.116;11.656;2022-08-25T10:15:45;35.10;53.40
41924;DHT22;27613;48.116;11.656;2022-08-25T10:18:27;35.00;52.60
41924;DHT22;27613;48.116;11.656;2022-08-25T10:21:12;35.30;52.00
41924;DHT22;27613;48.116;11.656;2022-08-25T10:23:47;35.20;52.00
41924;DHT22;27613;48.116;11.656;2022-08-25T10:31:58;32.90;56.90
41924;DHT22;27613;48.116;11.656;2022-08-25T10:37:27;34.00;53.90
41924;DHT22;27613;48.116;11.656;2022-08-25T10:40:06;35.20;52.20
41924;DHT22;27613;48.116;11.656;2022-08-25T10:45:23;35.40;51.30
41924;DHT22;27613;48.116;11.656;2022-08-25T10:48:46;34.80;51.20
41924;DHT22;27613;48.116;11.656;2022-08-25T11:00:19;34.00;52.70
41924;DHT22;27613;48.116;11.656;2022-08-25T11:05:29;34.20;52.40
41924;DHT22;27613;48.116;11.656;2022-08-25T11:08:16;34.90;51.10
41924;DHT22;27613;48.116;11.656;2022-08-25T11:10:56;34.80;51.80
41924;DHT22;27613;48.116;11.656;2022-08-25T11:13:42;35.60;50.30
41924;DHT22;27613;48.116;11.656;2022-08-25T11:16:16;36.10;50.90
41924;DHT22;27613;48.116;11.656;2022-08-25T11:18:54;38.70;48.00
41924;DHT22;27613;48.116;11.656;2022-08-25T11:21:32;39.60;46.40
41924;DHT22;27613;48.116;11.656;2022-08-25T11:24:29;40.00;45.50
41924;DHT22;27613;48.116;11.656;2022-08-25T11:26:56;40.00;45.60
41924;DHT22;27613;48.116;11.656;2022-08-25T11:29:27;40.10;45.70
41924;DHT22;27613;48.116;11.656;2022-08-25T11:31:58;40.00;45.80
41924;DHT22;27613;48.116;11.656;2022-08-25T11:34:24;41.30;45.40
41924;DHT22;27613;48.116;11.656;2022-08-25T11:36:58;42.00;44.30
41924;DHT22;27613;48.116;11.656;2022-08-25T11:39:38;41.60;43.60
41924;DHT22;27613;48.116;11.656;2022-08-25T11:47:57;40.00;44.90
41924;DHT22;27613;48.116;11.656;2022-08-25T11:55:48;39.70;45.50
41924;DHT22;27613;48.116;11.656;2022-08-25T11:58:36;36.80;47.00
41924;DHT22;27613;48.116;11.656;2022-08-25T12:01:07;38.60;46.90
41924;DHT22;27613;48.116;11.656;2022-08-25T12:11:50;40.80;44.10
41924;DHT22;27613;48.116;11.656;2022-08-25T12:21:52;40.80;43.50
41924;DHT22;27613;48.116;11.656;2022-08-25T12:24:47;41.60;43.00
41924;DHT22;27613;48.116;11.656;2022-08-25T12:27:26;42.90;42.80
41924;DHT22;27613;48.116;11.656;2022-08-25T12:30:21;42.50;42.20
41924;DHT22;27613;48.116;11.656;2022-08-25T12:36:03;43.10;41.00
41924;DHT22;27613;48.116;11.656;2022-08-25T12:41:02;43.30;41.60
41924;DHT22;27613;48.116;11.656;2022-08-25T12:43:32;41.20;43.00
41924;DHT22;27613;48.116;11.656;2022-08-25T12:54:47;35.40;50.70
41924;DHT22;27613;48.116;11.656;2022-08-25T13:00:23;37.00;49.60
41924;DHT22;27613;48.116;11.656;2022-08-25T13:08:55;39.20;45.80
41924;DHT22;27613;48.116;11.656;2022-08-25T13:11:48;40.00;45.10
41924;DHT22;27613;48.116;11.656;2022-08-25T13:14:22;39.80;44.50
41924;DHT22;27613;48.116;11.656;2022-08-25T13:16:58;39.00;45.50
41924;DHT22;27613;48.116;11.656;2022-08-25T13:19:24;38.30;46.50
41924;DHT22;27613;48.116;11.656;2022-08-25T13:21:51;39.20;46.50
41924;DHT22;27613;48.116;11.656;2022-08-25T13:27:03;37.60;47.60
41924;DHT22;27613;48.116;11.656;2022-08-25T13:29:35;39.50;45.70
41924;DHT22;27613;48.116;11.656;2022-08-25T13:32:06;40.70;44.80
41924;DHT22;27613;48.116;11.656;2022-08-25T13:34:35;40.80;44.00
41924;DHT22;27613;48.116;11.656;2022-08-25T13:37:10;41.00;43.80
41924;DHT22;27613;48.116;11.656;2022-08-25T13:40:27;41.30;44.00
41924;DHT22;27613;48.116;11.656;2022-08-25T13:43:05;42.00;43.10
41924;DHT22;27613;48.116;11.656;2022-08-25T13:45:38;43.00;42.20
41924;DHT22;27613;48.116;11.656;2022-08-25T13:48:06;42.70;41.90
41924;DHT22;27613;48.116;11.656;2022-08-25T13:50:37;43.60;41.60
41924;DHT22;27613;48.116;11.656;2022-08-25T13:53:19;43.90;40.90
41924;DHT22;27613;48.116;11.656;2022-08-25T13:55:58;44.10;40.70
41924;DHT22;27613;48.116;11.656;2022-08-25T13:58:33;43.00;41.10
41924;DHT22;27613;48.116;11.656;2022-08-25T14:03:43;43.80;40.70
41924;DHT22;27613;48.116;11.656;2022-08-25T14:06:19;43.80;40.80
41924;DHT22;27613;48.116;11.656;2022-08-25T14:09:03;41.40;41.90
41924;DHT22;27613;48.116;11.656;2022-08-25T14:11:42;39.50;44.70
41924;DHT22;27613;48.116;11.656;2022-08-25T14:14:31;39.10;45.00
41924;DHT22;27613;48.116;11.656;2022-08-25T14:17:05;37.90;46.40
41924;DHT22;27613;48.116;11.656;2022-08-25T14:19:33;38.10;46.60
41924;DHT22;27613;48.116;11.656;2022-08-25T14:21:59;38.30;47.70
41924;DHT22;27613;48.116;11.656;2022-08-25T14:24:30;36.70;48.80
41924;DHT22;27613;48.116;11.656;2022-08-25T14:26:56;36.80;49.50
41924;DHT22;27613;48.116;11.656;2022-08-25T14:29:22;37.50;48.40
41924;DHT22;27613;48.116;11.656;2022-08-25T14:31:48;37.60;48.10
41924;DHT22;27613;48.116;11.656;2022-08-25T14:34:17;37.50;48.30
41924;DHT22;27613;48.116;11.656;2022-08-25T14:36:43;37.10;47.70
41924;DHT22;27613;48.116;11.656;2022-08-25T14:39:09;37.70;47.70
41924;DHT22;27613;48.116;11.656;2022-08-25T14:41:38;38.20;46.60
41924;DHT22;27613;48.116;11.656;2022-08-25T14:44:06;39.20;46.70
41924;DHT22;27613;48.116;11.656;2022-08-25T14:46:35;38.60;46.40
41924;DHT22;27613;48.116;11.656;2022-08-25T14:49:06;38.00;46.70
41924;DHT22;27613;48.116;11.656;2022-08-25T14:51:35;37.30;48.10
41924;DHT22;27613;48.116;11.656;2022-08-25T14:54:05;37.60;48.80
41924;DHT22;27613;48.116;11.656;2022-08-25T14:56:33;37.70;47.50
41924;DHT22;27613;48.116;11.656;2022-08-25T14:58:59;38.10;47.40
41924;DHT22;27613;48.116;11.656;2022-08-25T15:01:25;38.40;46.80
41924;DHT22;27613;48.116;11.656;2022-08-25T15:03:55;38.20;47.00
41924;DHT22;27613;48.116;11.656;2022-08-25T15:06:21;37.80;47.20
41924;DHT22;27613;48.116;11.656;2022-08-25T15:08:47;37.30;47.90
41924;DHT22;27613;48.116;11.656;2022-08-25T15:11:31;37.20;48.10
41924;DHT22;27613;48.116;11.656;2022-08-25T15:13:58;37.60;48.20
41924;DHT22;27613;48.116;11.656;2022-08-25T15:16:32;38.00;47.20
41924;DHT22;27613;48.116;11.656;2022-08-25T15:18:59;37.70;47.50
41924;DHT22;27613;48.116;11.656;2022-08-25T15:21:25;37.00;48.30
41924;DHT22;27613;48.116;11.656;2022-08-25T15:23:51;36.90;48.70
41924;DHT22;27613;48.116;11.656;2022-08-25T15:26:17;36.60;48.90
41924;DHT22;27613;48.116;11.656;2022-08-25T15:28:46;36.40;49.20
41924;DHT22;27613;48.116;11.656;2022-08-25T15:31:14;36.10;49.70
41924;DHT22;27613;48.116;11.656;2022-08-25T15:33:40;35.40;50.10
41924;DHT22;27613;48.116;11.656;2022-08-25T15:36:08;35.40;50.80
41924;DHT22;27613;48.116;11.656;2022-08-25T15:38:36;35.00;51.60
41924;DHT22;27613;48.116;11.656;2022-08-25T15:41:03;35.50;50.50
41924;DHT22;27613;48.116;11.656;2022-08-25T15:43:29;35.90;50.70
41924;DHT22;27613;48.116;11.656;2022-08-25T15:45:54;35.40;50.00
41924;DHT22;27613;48.116;11.656;2022-08-25T15:48:20;35.10;51.00
41924;DHT22;27613;48.116;11.656;2022-08-25T15:50:46;35.00;51.40
41924;DHT22;27613;48.116;11.656;2022-08-25T15:53:12;34.80;51.80
41924;DHT22;27613;48.116;11.656;2022-08-25T15:55:39;34.60;52.00
41924;DHT22;27613;48.116;11.656;2022-08-25T15:58:05;33.70;53.10
41924;DHT22;27613;48.116;11.656;2022-08-25T16:00:31;33.60;53.40
41924;DHT22;27613;48.116;11.656;2022-08-25T16:02:57;33.50;53.90
41924;DHT22;27613;48.116;11.656;2022-08-25T16:05:22;33.50;54.00
41924;DHT22;27613;48.116;11.656;2022-08-25T16:07:48;33.20;54.50
41924;DHT22;27613;48.116;11.656;2022-08-25T16:10:14;32.60;54.90
41924;DHT22;27613;48.116;11.656;2022-08-25T16:12:39;32.50;55.60
41924;DHT22;27613;48.116;11.656;2022-08-25T16:15:06;32.20;56.20
41924;DHT22;27613;48.116;11.656;2022-08-25T16:17:32;32.20;55.90
41924;DHT22;27613;48.116;11.656;2022-08-25T16:19:57;32.20;55.90
41924;DHT22;27613;48.116;11.656;2022-08-25T16:22:23;32.20;56.00
41924;DHT22;27613;48.116;11.656;2022-08-25T16:24:48;32.40;55.80
41924;DHT22;27613;48.116;11.656;2022-08-25T16:27:14;32.10;54.90
41924;DHT22;27613;48.116;11.656;2022-08-25T16:29:41;32.10;55.70
41924;DHT22;27613;48.116;11.656;2022-08-25T16:32:09;32.50;55.10
41924;DHT22;27613;48.116;11.656;2022-08-25T16:34:35;32.50;55.10
41924;DHT22;27613;48.116;11.656;2022-08-25T16:37:02;32.50;54.90
41924;DHT22;27613;48.116;11.656;2022-08-25T16:39:27;32.00;55.50
41924;DHT22;27613;48.116;11.656;2022-08-25T16:41:53;32.00;55.80
41924;DHT22;27613;48.116;11.656;2022-08-25T16:44:20;31.90;56.20
41924;DHT22;27613;48.116;11.656;2022-08-25T16:46:46;31.50;56.90
41924;DHT22;27613;48.116;11.656;2022-08-25T16:49:13;31.10;57.90
41924;DHT22;27613;48.116;11.656;2022-08-25T16:51:40;31.00;58.80
41924;DHT22;27613;48.116;11.656;2022-08-25T16:54:08;30.60;59.70
41924;DHT22;27613;48.116;11.656;2022-08-25T16:56:52;30.50;60.20
41924;DHT22;27613;48.116;11.656;2022-08-25T16:59:18;30.20;60.60
41924;DHT22;27613;48.116;11.656;2022-08-25T17:01:44;30.20;61.00
41924;DHT22;27613;48.116;11.656;2022-08-25T17:04:10;30.20;61.30
41924;DHT22;27613;48.116;11.656;2022-08-25T17:06:41;30.00;61.50
41924;DHT22;27613;48.116;11.656;2022-08-25T17:09:09;29.70;61.90
41924;DHT22;27613;48.116;11.656;2022-08-25T17:11:40;29.70;62.20
41924;DHT22;27613;48.116;11.656;2022-08-25T17:14:08;29.40;62.70
41924;DHT22;27613;48.116;11.656;2022-08-25T17:16:35;29.20;62.70
41924;DHT22;27613;48.116;11.656;2022-08-25T17:19:04;29.00;63.80
41924;DHT22;27613;48.116;11.656;2022-08-25T17:21:33;28.90;64.00
41924;DHT22;27613;48.116;11.656;2022-08-25T17:24:00;28.90;64.40
41924;DHT22;27613;48.116;11.656;2022-08-25T17:26:27;28.80;64.60
41924;DHT22;27613;48.116;11.656;2022-08-25T17:28:53;28.90;64.90
41924;DHT22;27613;48.116;11.656;2022-08-25T17:31:19;28.70;64.80
41924;DHT22;27613;48.116;11.656;2022-08-25T17:33:45;28.50;65.20
41924;DHT22;27613;48.116;11.656;2022-08-25T17:36:12;28.30;65.80
41924;DHT22;27613;48.116;11.656;2022-08-25T17:38:38;28.30;66.10
41924;DHT22;27613;48.116;11.656;2022-08-25T17:41:07;28.30;66.40
41924;DHT22;27613;48.116;11.656;2022-08-25T17:43:35;28.10;66.50
41924;DHT22;27613;48.116;11.656;2022-08-25T17:46:01;28.00;67.30
41924;DHT22;27613;48.116;11.656;2022-08-25T17:48:28;27.90;67.40
41924;DHT22;27613;48.116;11.656;2022-08-25T17:50:54;27.80;68.10
41924;DHT22;27613;48.116;11.656;2022-08-25T17:53:20;27.70;68.60
41924;DHT22;27613;48.116;11.656;2022-08-25T17:55:46;27.60;68.80
41924;DHT22;27613;48.116;11.656;2022-08-25T17:58:13;27.60;68.80
41924;DHT22;27613;48.116;11.656;2022-08-25T18:00:40;27.50;69.30
41924;DHT22;27613;48.116;11.656;2022-08-25T18:03:06;27.30;69.40
41924;DHT22;27613;48.116;11.656;2022-08-25T18:05:34;27.20;70.10
41924;DHT22;27613;48.116;11.656;2022-08-25T18:08:01;27.20;70.30
41924;DHT22;27613;48.116;11.656;2022-08-25T18:10:27;27.00;70.70
41924;DHT22;27613;48.116;11.656;2022-08-25T18:12:53;26.90;71.10
41924;DHT22;27613;48.116;11.656;2022-08-25T18:15:19;26.80;71.20
41924;DHT22;27613;48.116;11.656;2022-08-25T18:17:45;26.70;71.70
41924;DHT22;27613;48.116;11.656;2022-08-25T18:20:13;26.50;72.30
41924;DHT22;27613;48.116;11.656;2022-08-25T18:22:39;26.40;72.60
41924;DHT22;27613;48.116;11.656;2022-08-25T18:25:08;26.30;72.80
41924;DHT22;27613;48.116;11.656;2022-08-25T18:27:35;26.30;73.40
41924;DHT22;27613;48.116;11.656;2022-08-25T18:30:01;26.10;74.00
41924;DHT22;27613;48.116;11.656;2022-08-25T18:32:27;26.10;74.40
41924;DHT22;27613;48.116;11.656;2022-08-25T18:34:54;26.00;74.70
41924;DHT22;27613;48.116;11.656;2022-08-25T18:37:20;25.90;75.00
41924;DHT22;27613;48.116;11.656;2022-08-25T18:40:05;25.80;75.50
41924;DHT22;27613;48.116;11.656;2022-08-25T18:43:04;25.80;75.90
41924;DHT22;27613;48.116;11.656;2022-08-25T18:48:04;25.60;76.60
41924;DHT22;27613;48.116;11.656;2022-08-25T18:50:32;25.70;76.60
41924;DHT22;27613;48.116;11.656;2022-08-25T18:52:58;25.50;77.50
41924;DHT22;27613;48.116;11.656;2022-08-25T18:55:25;25.40;78.00
41924;DHT22;27613;48.116;11.656;2022-08-25T18:57:51;25.40;77.90
41924;DHT22;27613;48.116;11.656;2022-08-25T19:00:19;25.30;78.50
41924;DHT22;27613;48.116;11.656;2022-08-25T19:02:48;25.20;78.70
41924;DHT22;27613;48.116;11.656;2022-08-25T19:05:15;25.00;79.60
41924;DHT22;27613;48.116;11.656;2022-08-25T19:07:41;25.00;80.10